Flight Track Log - Related Links

Times and Time Zones

All times are in EDT time to prevent confusion due to time zone crossing. See the EMD24 flight status page for this flight to view local times or setup timezone preferences in your user account.

Time Position Orientation Groundspeed Altitude Reporting Facility
EDT Latitude Longitude Course Direction KTS MPH feet Rate Location/Type
Mon 06:54:32 PM 39.1333 -94.5833 270° West 123 142 1,500  Level Kansas City TRACON
Mon 06:55:14 PM 39.1667 -94.5833 360° North 119 137 2,400 1,223 Climbing Kansas City TRACON
Mon 06:56:15 PM 39.1889 -94.5681 28° Northeast 113 130 3,600 1,220 Climbing Kansas City Center
Mon 06:57:17 PM 39.2139 -94.5936 322° Northwest 130 150 4,900 1,306 Climbing Kansas City Center
Mon 06:58:19 PM 39.2267 -94.6350 292° West 136 157 6,300 1,355 Climbing Kansas City Center
Mon 06:59:21 PM 39.2283 -94.6908 272° West 140 161 7,700 1,258 Climbing Kansas City Center
Mon 07:00:00 PM 39.1500 -95.0460 270° West  Level FlightAware Approximate
Mon 07:00:23 PM 39.2308 -94.7419 274° West 148 170 8,900  Level Kansas City Center
Mon 07:01:25 PM 39.2358 -94.8019 276° West 151 174 10,500 1,366 Climbing Kansas City Center
Mon 07:02:26 PM 39.2378 -94.8544 273° West 153 176 11,700 1,024 Climbing Kansas City Center
Mon 07:03:28 PM 39.2400 -94.9122 273° West 166 191 12,600 871 Climbing Kansas City Center
Mon 07:04:30 PM 39.2444 -94.9850 275° West 181 208 13,500 871 Climbing Kansas City Center
Mon 07:05:32 PM 39.2475 -95.0511 273° West 193 222 14,400 823 Climbing Kansas City Center
Mon 07:06:34 PM 39.2506 -95.1283 273° West 194 223 15,200 774 Climbing Kansas City Center
Mon 07:07:36 PM 39.2544 -95.2078 274° West 206 237 16,000 726 Climbing Kansas City Center
Mon 07:08:38 PM 39.2578 -95.2808 273° West 206 237 16,700 726 Climbing Kansas City Center
Mon 07:09:40 PM 39.2614 -95.3583 273° West 204 235 17,500 629 Climbing Kansas City Center
Mon 07:10:42 PM 39.2644 -95.4308 273° West 204 235 18,000 244 Climbing Kansas City Center
Mon 07:11:43 PM 39.2675 -95.5133 273° West 221 254 18,000  Level Kansas City Center
Mon 07:12:45 PM 39.2717 -95.5933 274° West 230 265 18,000  Level Kansas City Center
Mon 07:13:47 PM 39.2744 -95.6739 273° West 233 268 18,000  Level Kansas City Center
Mon 07:14:49 PM 39.2783 -95.7700 273° West 240 276 18,000  Level Kansas City Center
Mon 07:15:51 PM 39.2817 -95.8511 273° West 236 272 18,000  Level Kansas City Center
Mon 07:16:53 PM 39.2853 -95.9456 273° West 237 273 18,000  Level Kansas City Center
Mon 07:17:55 PM 39.2889 -96.0264 273° West 235 270 18,000  Level Kansas City Center
Mon 07:18:57 PM 39.2919 -96.1211 272° West 236 272 18,000  Level Kansas City Center
Mon 07:19:59 PM 39.2939 -96.1969 272° West 234 269 18,000  Level Kansas City Center
Mon 07:21:00 PM 39.2961 -96.2811 272° West 235 270 18,000  Level Kansas City Center
Mon 07:22:02 PM 39.3008 -96.3678 274° West 240 276 18,000  Level Kansas City Center
Mon 07:23:04 PM 39.3042 -96.4683 272° West 235 270 18,000  Level Kansas City Center
Mon 07:24:06 PM 39.3069 -96.5525 272° West 234 269 18,000  Level Kansas City Center
Mon 07:25:08 PM 39.3097 -96.6328 273° West 234 269 18,000  Level Kansas City Center
Mon 07:26:10 PM 39.3133 -96.7297 273° West 240 276 18,000  Level Kansas City Center
Mon 07:27:12 PM 39.3156 -96.8106 272° West 238 274 18,000  Level Kansas City Center
Mon 07:28:14 PM 39.3192 -96.9042 273° West 235 270 18,000  Level Kansas City Center
Mon 07:29:15 PM 39.3200 -96.9844 271° West 234 269 18,000  Level Kansas City Center
Mon 07:30:17 PM 39.3244 -97.0803 273° West 238 274 18,000  Level Kansas City Center
Mon 07:31:19 PM 39.3269 -97.1619 272° West 239 275 18,000  Level Kansas City Center
Mon 07:32:21 PM 39.3286 -97.2556 271° West 235 270 18,000  Level Kansas City Center
Mon 07:33:23 PM 39.3314 -97.3392 272° West 240 276 18,000  Level Kansas City Center
Mon 07:34:24 PM 39.3344 -97.4194 273° West 236 272 18,000  Level Kansas City Center
Mon 07:35:26 PM 39.3367 -97.5161 272° West 240 276 18,000  Level Kansas City Center
Mon 07:36:28 PM 39.3400 -97.5964 273° West 240 276 18,000  Level Kansas City Center
Mon 07:37:30 PM 39.3419 -97.6819 272° West 239 275 18,000  Level Kansas City Center
Mon 07:38:31 PM 39.3436 -97.7839 271° West 237 273 18,000  Level Kansas City Center
Mon 07:39:33 PM 39.3464 -97.8681 272° West 235 270 18,000  Level Kansas City Center
Mon 07:40:35 PM 39.3475 -97.9508 271° West 237 273 18,000  Level Kansas City Center
Mon 07:41:37 PM 39.3489 -98.0314 271° West 235 270 18,000  Level Kansas City Center
Mon 07:42:38 PM 39.3525 -98.1283 273° West 240 276 18,000  Level Kansas City Center
Mon 07:43:40 PM 39.3536 -98.2189 271° West 237 273 18,000  Level Kansas City Center
Mon 07:44:42 PM 39.3553 -98.2978 272° West 244 281 18,000  Level Kansas City Center
Mon 07:45:44 PM 39.3572 -98.3831 272° West 239 275 18,000  Level Kansas City Center
Mon 07:46:46 PM 39.3581 -98.4847 271° West 237 273 18,000  Level Kansas City Center
Mon 07:47:47 PM 39.3594 -98.5661 271° West 239 275 18,000  Level Kansas City Center
Mon 07:48:49 PM 39.3606 -98.6597 271° West 235 270 18,000  Level Kansas City Center
Mon 07:49:51 PM 39.3633 -98.7414 273° West 236 272 18,000  Level Kansas City Center
Mon 07:50:53 PM 39.3631 -98.8236 270° West 239 275 18,000  Level Kansas City Center
Mon 07:51:54 PM 39.3656 -98.9181 272° West 238 274 18,000  Level Kansas City Center
Mon 07:52:56 PM 39.3658 -99.0028 270° West 237 273 18,000  Level Kansas City Center
Mon 07:53:58 PM 39.3675 -99.0869 271° West 235 270 18,000  Level Kansas City Center
Mon 07:55:00 PM 39.3692 -99.1708 271° West 235 270 18,000  Level Kansas City Center
Mon 07:56:01 PM 39.3697 -99.2556 271° West 235 270 18,000  Level Kansas City Center
Mon 07:57:03 PM 39.3700 -99.3386 270° West 233 268 18,000  Level Kansas City Center
Mon 07:58:05 PM 39.3717 -99.4381 271° West 232 267 18,000  Level Kansas City Center
Mon 07:59:06 PM 39.3719 -99.5233 270° West 235 270 18,000  Level Kansas City Center
Mon 08:00:08 PM 39.3725 -99.6019 271° West 232 267 18,000  Level Kansas City Center
Mon 08:01:10 PM 39.3731 -99.6944 270° West 232 267 18,000  Level Kansas City Center
Mon 08:02:12 PM 39.3733 -99.7725 270° West 230 265 18,000  Level Kansas City Center
Mon 08:03:13 PM 39.3742 -99.8650 271° West 230 265 18,000  Level Kansas City Center
Mon 08:04:35 PM 39.3756 -99.9831 271° West 233 268 18,000  Level Denver Center
Mon 08:05:37 PM 39.3747 -100.0625 269° West 232 267 18,000  Level Denver Center
Mon 08:06:39 PM 39.3767 -100.1556 272° West 231 266 18,000  Level Denver Center
Mon 08:07:41 PM 39.3761 -100.2356 270° West 233 268 18,000  Level Denver Center
Mon 08:08:43 PM 39.3764 -100.3164 270° West 235 270 18,000  Level Denver Center
Mon 08:09:45 PM 39.3767 -100.4097 270° West 232 267 18,000  Level Denver Center
Mon 08:10:47 PM 39.3761 -100.4875 269° West 230 265 18,000  Level Denver Center
Mon 08:11:49 PM 39.3758 -100.5819 270° West 233 268 18,000 -387 Level Denver Center
Mon 08:12:51 PM 39.3756 -100.6650 270° West 240 276 17,200 -871 Descending Denver Center
Mon 08:13:53 PM 39.3769 -100.7742 271° West 269 310 16,200 -1,056 Descending Denver Center
Mon 08:14:56 PM 39.3769 -100.8672 270° West 269 310 15,000 -1,200 Descending Denver Center
Mon 08:15:58 PM 39.3764 -100.9769 270° West 274 315 13,700 -1,016 Descending Denver Center
Mon 08:17:00 PM 39.3758 -101.0681 270° West 268 308 12,900 -1,016 Descending Denver Center
Mon 08:18:02 PM 39.3753 -101.1739 270° West 265 305 11,600 -1,016 Descending Denver Center
Mon 08:19:04 PM 39.3747 -101.2631 270° West 262 302 10,800 -1,113 Descending Denver Center
Mon 08:20:06 PM 39.3736 -101.3564 269° West 243 280 9,300 -1,258 Descending Denver Center
Mon 08:21:08 PM 39.3725 -101.4436 269° West 247 284 8,200 -968 Descending Denver Center
Mon 08:22:10 PM 39.3631 -101.5247 261° West 250 288 7,300 -871 Descending Denver Center
Mon 08:24:00 PM 39.3667 -101.6685 270° West  Level FlightAware Approximate
Mon 08:31:00 PM 39.3667 -101.6833 270° West  Level FlightAware Approximate
Mon 08:32:00 PM 39.3706 -101.6990 270° West  Level Estimated
Mon 08:33:00 PM 39.3706 -101.6990 270° West  Level Estimated
Mon 08:34:00 PM 39.3706 -101.6990 270° West  Level Estimated
Mon 08:35:00 PM 39.3706 -101.6990 270° West  Level Estimated
Mon 08:36:00 PM 39.3706 -101.6990 270° West  Level Estimated

Login

Don't have an account? Register now (free) for customized features, flight alerts, and more!